Time;durP1;ratioP1;P1;durP2;ratioP2;P2;SDS_P1;SDS_P2;PMS_P1;PMS_P2;Temp;Humidity;BMP_temperature;BMP_pressure;BME280_temperature;BME280_humidity;BME280_pressure;Samples;Min_cycle;Max_cycle;Signal;HPM_P1;HPM_P2
2023/10/01 00:05:05;;;;;;;5.13;1.95;;;13.90;1.00;;;;;;10436519;28;20265;-76
2023/10/01 00:10:27;;;;;;;7.25;2.33;;;13.90;99.90;;;;;;10436450;28;20244;-76
2023/10/01 00:15:49;;;;;;;9.18;2.13;;;13.90;99.90;;;;;;10454035;28;20201;-76
2023/10/01 00:21:10;;;;;;;6.72;2.30;;;13.90;99.90;;;;;;10459382;28;20278;-76
2023/10/01 00:26:31;;;;;;;9.00;2.45;;;13.90;99.90;;;;;;10477142;28;20197;-76
2023/10/01 00:31:53;;;;;;;7.43;2.20;;;13.90;1.00;;;;;;10461512;28;20204;-76
2023/10/01 00:37:14;;;;;;;5.43;2.33;;;13.80;1.00;;;;;;10476253;28;20409;-76
2023/10/01 00:42:36;;;;;;;7.35;2.03;;;13.80;1.00;;;;;;10476929;28;20191;-75
2023/10/01 00:48:11;;;;;;;8.60;2.60;;;13.80;1.00;;;;;;10476166;28;20211;-75
2023/10/01 00:53:33;;;;;;;10.45;2.55;;;13.80;1.00;;;;;;10461742;28;20189;-75
2023/10/01 00:58:54;;;;;;;4.90;1.90;;;13.80;99.90;;;;;;10476332;28;20246;-74
2023/10/01 01:04:21;;;;;;;7.40;2.58;;;13.90;1.00;;;;;;10443221;28;20208;-75
2023/10/01 01:09:43;;;;;;;12.00;2.65;;;13.90;4.10;;;;;;10461715;28;20253;-74
2023/10/01 01:15:12;;;;;;;6.53;2.72;;;14.00;1.00;;;;;;10497004;28;20202;-75
2023/10/01 01:20:36;;;;;;;9.95;2.88;;;14.00;99.90;;;;;;10468430;28;20229;-74
2023/10/01 01:25:58;;;;;;;14.52;3.88;;;14.00;92.70;;;;;;10481069;28;20523;-74
2023/10/01 01:31:20;;;;;;;13.80;4.68;;;14.00;99.90;;;;;;10467777;28;20188;-74
2023/10/01 01:36:42;;;;;;;22.35;3.47;;;14.00;99.90;;;;;;10468412;28;20201;-74
2023/10/01 01:42:03;;;;;;;10.32;3.30;;;14.00;99.90;;;;;;10484715;28;20205;-74
2023/10/01 01:47:25;;;;;;;12.52;4.60;;;14.00;99.90;;;;;;10482030;28;20211;-74
2023/10/01 01:52:50;;;;;;;8.48;2.50;;;13.90;1.00;;;;;;10482692;28;20221;-75
2023/10/01 01:58:15;;;;;;;8.30;2.80;;;13.90;1.00;;;;;;10464654;28;20310;-74
2023/10/01 02:03:46;;;;;;;11.05;3.70;;;13.90;1.00;;;;;;10434244;28;20204;-74
2023/10/01 02:09:12;;;;;;;16.80;4.68;;;14.00;1.00;;;;;;10453691;28;20236;-75
2023/10/01 02:14:35;;;;;;;8.48;3.40;;;14.00;1.00;;;;;;10480824;28;20207;-74
2023/10/01 02:19:58;;;;;;;6.30;2.47;;;14.00;99.90;;;;;;10481486;28;20246;-75
2023/10/01 02:25:36;;;;;;;11.38;2.30;;;13.90;1.00;;;;;;10480149;28;20198;-74
2023/10/01 02:31:00;;;;;;;6.82;2.10;;;13.90;1.00;;;;;;10481292;28;20197;-75
2023/10/01 02:36:23;;;;;;;7.80;2.70;;;13.80;1.00;;;;;;10480777;28;20196;-74
2023/10/01 02:42:03;;;;;;;8.63;2.63;;;13.80;99.90;;;;;;10479559;28;20227;-74
2023/10/01 02:47:25;;;;;;;4.82;1.65;;;13.80;99.90;;;;;;10465558;28;20214;-74
2023/10/01 02:52:46;;;;;;;8.83;2.40;;;13.80;1.00;;;;;;10465139;28;20196;-73
2023/10/01 02:58:17;;;;;;;10.80;2.78;;;13.80;1.00;;;;;;10479238;28;20238;-74
2023/10/01 03:03:40;;;;;;;6.53;2.22;;;13.90;99.90;;;;;;10480098;28;20259;-74
2023/10/01 03:09:03;;;;;;;10.90;2.58;;;13.90;1.00;;;;;;10477581;28;20232;-74
2023/10/01 03:14:26;;;;;;;9.00;2.45;;;13.90;1.00;;;;;;10470029;28;20542;-74
2023/10/01 03:19:52;;;;;;;9.07;2.67;;;13.80;1.00;;;;;;10478916;28;20284;-74
2023/10/01 03:25:28;;;;;;;8.32;2.58;;;13.80;1.00;;;;;;10476442;28;20231;-74
2023/10/01 03:30:51;;;;;;;5.73;2.10;;;13.80;1.00;;;;;;10479006;28;20197;-74
2023/10/01 03:36:16;;;;;;;7.57;2.23;;;13.80;1.00;;;;;;10474405;28;20196;-74
2023/10/01 03:47:20;;;;;;;10.95;2.58;;;13.80;1.00;;;;;;10477360;28;20242;-75
2023/10/01 03:52:41;;;;;;;6.68;2.83;;;13.80;1.00;;;;;;10478185;28;20204;-74
2023/10/01 04:03:36;;;;;;;7.75;3.28;;;13.80;99.90;;;;;;10436748;28;20243;-75
2023/10/01 04:09:00;;;;;;;10.38;2.75;;;13.80;1.00;;;;;;10436177;28;20233;-75
2023/10/01 04:14:23;;;;;;;9.75;3.03;;;13.80;1.00;;;;;;10452532;28;20199;-75
2023/10/01 04:19:49;;;;;;;6.47;2.00;;;13.80;1.00;;;;;;10477094;28;20236;-74
2023/10/01 04:25:10;;;;;;;7.45;2.35;;;13.80;99.90;;;;;;10476503;28;20205;-74
2023/10/01 04:30:34;;;;;;;7.15;2.63;;;13.80;1.00;;;;;;10475729;28;20208;-74
2023/10/01 04:35:55;;;;;;;10.02;3.10;;;13.80;1.00;;;;;;10480269;28;20192;-74
2023/10/01 04:41:18;;;;;;;8.63;2.40;;;13.80;1.00;;;;;;10485310;28;20219;-72
2023/10/01 04:46:45;;;;;;;8.82;2.42;;;13.80;1.00;;;;;;10448515;28;20253;-75
2023/10/01 04:52:10;;;;;;;8.23;2.15;;;13.70;1.00;;;;;;10443912;28;20237;-75
2023/10/01 04:57:36;;;;;;;7.77;2.30;;;13.70;34.80;;;;;;10446699;28;20257;-75
2023/10/01 05:02:57;;;;;;;11.07;1.97;;;13.60;1.00;;;;;;10443655;28;20194;-74
2023/10/01 05:08:18;;;;;;;7.30;2.00;;;13.70;1.00;;;;;;10443072;28;20311;-75
2023/10/01 05:13:47;;;;;;;10.27;2.47;;;13.70;1.00;;;;;;10456786;28;20197;-75
2023/10/01 05:19:13;;;;;;;7.53;2.20;;;13.80;1.00;;;;;;10482608;28;20232;-75
2023/10/01 05:24:34;;;;;;;7.00;1.90;;;13.80;99.90;;;;;;10484061;28;20394;-75
2023/10/01 05:29:55;;;;;;;3.65;1.52;;;13.80;99.90;;;;;;10483759;28;20199;-75
2023/10/01 05:35:16;;;;;;;8.50;1.90;;;13.80;1.00;;;;;;10466447;28;20507;-74
2023/10/01 05:40:40;;;;;;;7.05;2.05;;;13.80;1.00;;;;;;10483417;28;20222;-75
2023/10/01 05:46:01;;;;;;;9.88;2.22;;;13.90;1.00;;;;;;10466476;28;20210;-75
2023/10/01 05:51:30;;;;;;;10.27;2.30;;;13.80;1.00;;;;;;10483015;28;20195;-75
2023/10/01 05:56:55;;;;;;;7.20;2.05;;;13.90;1.00;;;;;;10482740;28;20232;-75
2023/10/01 06:02:31;;;;;;;7.20;2.17;;;14.00;2.10;;;;;;10463057;28;20254;-75
2023/10/01 06:07:54;;;;;;;7.85;2.22;;;14.00;99.90;;;;;;10440835;28;20241;-75
2023/10/01 06:13:17;;;;;;;11.13;2.65;;;14.10;1.00;;;;;;10440745;28;20192;-75
2023/10/01 06:18:43;;;;;;;10.80;2.60;;;14.20;1.00;;;;;;10445473;28;20225;-75
2023/10/01 06:24:07;;;;;;;7.45;2.50;;;14.30;99.90;;;;;;10480668;28;20230;-75
2023/10/01 06:29:28;;;;;;;7.38;2.55;;;14.40;99.90;;;;;;10480653;28;20235;-75
2023/10/01 06:34:53;;;;;;;9.32;2.25;;;14.40;99.90;;;;;;10481555;28;20189;-76
2023/10/01 06:40:39;;;;;;;8.77;2.25;;;14.40;1.00;;;;;;10481031;28;20230;-75
2023/10/01 06:45:59;;;;;;;10.52;2.72;;;14.40;68.60;;;;;;10479621;28;20263;-75
2023/10/01 06:51:21;;;;;;;7.13;2.03;;;14.40;1.00;;;;;;10480637;28;20204;-75
2023/10/01 06:56:44;;;;;;;9.00;2.35;;;14.40;61.60;;;;;;10462543;28;20200;-76
2023/10/01 07:02:07;;;;;;;5.97;2.08;;;14.60;99.90;;;;;;10478393;28;20232;-77
2023/10/01 07:07:29;;;;;;;6.57;2.20;;;15.00;1.00;;;;;;10479783;28;20279;-76
2023/10/01 07:13:04;;;;;;;7.65;2.17;;;15.00;1.00;;;;;;10479653;28;20201;-76
2023/10/01 07:18:26;;;;;;;7.00;2.08;;;14.90;99.90;;;;;;10478342;28;20239;-76
2023/10/01 07:23:47;;;;;;;13.27;2.50;;;14.80;92.00;;;;;;10492473;28;20488;-76
2023/10/01 07:29:09;;;;;;;8.93;2.90;;;14.80;1.00;;;;;;10491155;28;20201;-77
2023/10/01 07:34:31;;;;;;;12.75;2.92;;;14.70;1.00;;;;;;10479176;28;20275;-77
2023/10/01 07:39:55;;;;;;;8.32;2.78;;;14.60;99.90;;;;;;10478609;28;20228;-77
2023/10/01 07:45:17;;;;;;;5.35;2.00;;;14.80;22.20;;;;;;10477615;28;20210;-77
2023/10/01 07:50:41;;;;;;;10.95;3.58;;;16.20;1.00;;;;;;10478442;28;20194;-77
2023/10/01 07:56:06;;;;;;;5.53;2.20;;;16.50;99.90;;;;;;10446505;28;20213;-76
2023/10/01 08:01:37;;;;;;;5.28;2.72;;;16.20;99.90;;;;;;10449821;28;20229;-76
2023/10/01 08:07:15;;;;;;;8.85;2.85;;;15.90;1.00;;;;;;10477289;28;20250;-77
2023/10/01 08:23:54;;;;;;;5.07;1.75;;;19.30;99.90;;;;;;10450224;28;20279;-77
2023/10/01 08:29:16;;;;;;;9.90;2.53;;;20.00;1.00;;;;;;10490672;28;20192;-77
2023/10/01 08:40:17;;;;;;;9.27;2.53;;;19.90;1.00;;;;;;10477098;28;20239;-77
2023/10/01 08:45:43;;;;;;;6.78;1.90;;;19.50;1.00;;;;;;10476237;28;20509;-77
2023/10/01 08:51:11;;;;;;;7.85;1.85;;;18.90;1.00;;;;;;10477129;28;20200;-76
2023/10/01 08:56:32;;;;;;;6.35;2.25;;;18.40;1.00;;;;;;10476568;28;20556;-77
2023/10/01 09:01:55;;;;;;;5.78;1.88;;;18.00;1.00;;;;;;10472339;28;20247;-77
2023/10/01 09:07:20;;;;;;;7.05;2.03;;;17.90;1.00;;;;;;10474235;28;20227;-77
2023/10/01 09:12:47;;;;;;;5.68;1.88;;;17.70;1.00;;;;;;10476522;28;20371;-77
2023/10/01 09:18:10;;;;;;;7.57;2.05;;;17.70;1.00;;;;;;10476417;28;20246;-77
2023/10/01 09:23:59;;;;;;;6.70;1.85;;;17.80;1.00;;;;;;10468672;28;20211;-75
2023/10/01 09:29:25;;;;;;;6.90;1.90;;;18.20;1.00;;;;;;10482817;28;20490;-76
2023/10/01 09:34:57;;;;;;;7.00;2.53;;;18.30;1.00;;;;;;10483365;28;20521;-75
2023/10/01 09:45:53;;;;;;;6.88;2.00;;;19.40;99.90;;;;;;10483043;28;20267;-76
2023/10/01 09:51:16;;;;;;;5.47;2.05;;;19.20;99.90;;;;;;10482709;28;20446;-75
2023/10/01 10:02:04;;;;;;;5.85;1.83;;;19.90;99.90;;;;;;10482234;28;20230;-76
2023/10/01 10:07:26;;;;;;;4.68;1.73;;;21.20;99.90;;;;;;10478185;28;20235;-76
2023/10/01 10:12:47;;;;;;;3.97;1.55;;;21.30;1.00;;;;;;10482077;28;20187;-76
2023/10/01 10:18:15;;;;;;;9.00;2.22;;;22.30;99.90;;;;;;10481593;28;20253;-76
2023/10/01 10:23:55;;;;;;;6.78;1.95;;;23.10;99.90;;;;;;10465068;28;20283;-75
2023/10/01 10:29:16;;;;;;;6.03;1.63;;;23.90;99.90;;;;;;10449656;28;20195;-76
2023/10/01 10:34:48;;;;;;;6.95;2.45;;;23.60;99.90;;;;;;10465895;28;20490;-76
2023/10/01 10:45:42;;;;;;;4.40;1.92;;;23.00;99.90;;;;;;10480627;28;20259;-76
2023/10/01 10:51:04;;;;;;;4.97;1.75;;;23.30;99.90;;;;;;10447725;28;20538;-76
2023/10/01 10:56:39;;;;;;;5.93;1.90;;;23.70;99.90;;;;;;10466658;28;20203;-76
2023/10/01 11:02:01;;;;;;;7.85;1.90;;;24.20;99.90;;;;;;10479777;28;20239;-76
2023/10/01 11:07:35;;;;;;;5.63;2.63;;;24.60;99.90;;;;;;10461134;28;20237;-76
2023/10/01 11:12:57;;;;;;;6.53;1.95;;;24.50;99.90;;;;;;10437253;28;20193;-76
2023/10/01 11:18:25;;;;;;;4.38;1.85;;;24.60;99.90;;;;;;10477297;28;20195;-76
2023/10/01 11:23:53;;;;;;;6.03;2.15;;;25.50;99.90;;;;;;10470991;28;20279;-75
2023/10/01 11:29:22;;;;;;;8.70;2.45;;;24.50;1.00;;;;;;10478990;28;20199;-75
2023/10/01 11:34:45;;;;;;;5.38;2.10;;;23.40;99.90;;;;;;10477847;28;20250;-75
2023/10/01 11:40:07;;;;;;;4.72;2.13;;;22.20;99.90;;;;;;10478740;28;20219;-76
2023/10/01 11:45:29;;;;;;;5.13;2.10;;;21.40;1.00;;;;;;10477759;28;20269;-76
2023/10/01 11:50:50;;;;;;;10.02;2.30;;;21.00;99.90;;;;;;10477482;28;20222;-76
2023/10/01 11:56:12;;;;;;;8.02;2.63;;;21.30;99.90;;;;;;10478207;28;20188;-75
2023/10/01 12:01:39;;;;;;;10.00;2.50;;;22.50;99.90;;;;;;10477619;28;20261;-76
2023/10/01 12:07:00;;;;;;;7.80;2.85;;;22.40;99.90;;;;;;10455306;28;20220;-76
2023/10/01 12:12:27;;;;;;;8.38;2.80;;;21.50;99.90;;;;;;10436453;28;20196;-75
2023/10/01 12:17:48;;;;;;;8.73;2.90;;;20.70;99.90;;;;;;10456541;28;20251;-76
2023/10/01 12:23:13;;;;;;;6.40;2.17;;;19.80;99.90;;;;;;10476027;28;20556;-76
2023/10/01 12:28:34;;;;;;;11.48;2.40;;;19.70;99.90;;;;;;10477501;28;20214;-76
2023/10/01 12:33:58;;;;;;;9.25;2.78;;;19.70;99.90;;;;;;10477005;28;20200;-75
2023/10/01 12:39:27;;;;;;;5.30;2.20;;;19.70;99.90;;;;;;10475742;28;20397;-76
2023/10/01 12:44:48;;;;;;;9.18;3.15;;;19.70;99.90;;;;;;10477276;28;20263;-76
2023/10/01 12:50:09;;;;;;;7.85;3.22;;;19.70;99.90;;;;;;10475901;28;20207;-76
2023/10/01 12:55:30;;;;;;;6.57;2.55;;;19.70;99.90;;;;;;10481321;28;20199;-76
2023/10/01 13:00:51;;;;;;;7.78;3.40;;;19.60;99.90;;;;;;10466690;28;20273;-76
2023/10/01 13:06:13;;;;;;;10.05;3.45;;;19.50;99.90;;;;;;10482345;28;20475;-76
2023/10/01 13:11:43;;;;;;;8.63;2.85;;;19.30;99.90;;;;;;10497466;28;20206;-76
2023/10/01 13:17:04;;;;;;;10.25;2.67;;;19.20;99.90;;;;;;10495091;28;20238;-76
2023/10/01 13:22:26;;;;;;;8.23;2.60;;;19.30;99.90;;;;;;10482565;28;20518;-75
2023/10/01 13:27:47;;;;;;;10.68;2.63;;;19.30;99.90;;;;;;10469127;28;20207;-76
2023/10/01 13:33:14;;;;;;;7.80;3.03;;;19.60;1.00;;;;;;10483327;28;20194;-76
2023/10/01 14:12:42;;;;;;;6.00;3.47;;;19.00;99.90;;;;;;10500298;28;20522;-77
2023/10/01 14:18:08;;;;;;;10.30;3.42;;;;;;;;;;10481372;28;20479;-77
2023/10/01 14:23:39;;;;;;;8.48;2.85;;;18.60;1.00;;;;;;10451355;28;20203;-77
2023/10/01 14:29:05;;;;;;;5.97;3.20;;;18.60;1.00;;;;;;10481199;28;20478;-77
2023/10/01 14:34:26;;;;;;;9.02;3.55;;;18.50;1.00;;;;;;10481112;28;20191;-77
2023/10/01 14:39:48;;;;;;;6.65;2.70;;;18.60;1.00;;;;;;10480077;28;20254;-77
2023/10/01 14:45:10;;;;;;;6.22;2.92;;;18.70;1.00;;;;;;10480598;28;20499;-77
2023/10/01 14:50:39;;;;;;;9.00;2.92;;;18.70;1.00;;;;;;10462849;28;20227;-77
2023/10/01 14:56:04;;;;;;;7.93;2.80;;;18.50;1.00;;;;;;10478600;28;20206;-76
2023/10/01 15:01:36;;;;;;;8.32;2.75;;;;;;;;;;10479900;28;20514;-76
2023/10/01 15:07:00;;;;;;;8.95;2.88;;;;;;;;;;10478852;28;20220;-77
2023/10/01 15:12:26;;;;;;;5.90;2.42;;;;;;;;;;10465049;28;20200;-77
2023/10/01 15:17:54;;;;;;;5.13;2.47;;;;;;;;;;10478566;28;20541;-76
2023/10/01 15:23:17;;;;;;;7.38;2.50;;;;;;;;;;10460979;28;20285;-76
2023/10/01 15:28:50;;;;;;;6.90;2.80;;;17.90;1.00;;;;;;10453070;28;20587;-76
2023/10/01 15:34:21;;;;;;;4.75;2.53;;;;;;;;;;10461096;28;20501;-76
2023/10/01 15:39:44;;;;;;;5.68;2.50;;;;;;;;;;10462799;28;20295;-77
2023/10/01 15:45:18;;;;;;;7.63;2.53;;;17.50;99.90;;;;;;10477325;28;20524;-77
2023/10/01 15:50:39;;;;;;;4.88;1.90;;;17.40;99.90;;;;;;10478421;28;20200;-77
2023/10/01 15:56:02;;;;;;;5.90;2.15;;;17.10;99.90;;;;;;10477225;28;20203;-77
2023/10/01 16:01:24;;;;;;;4.53;2.20;;;;;;;;;;10445838;28;20306;-77
2023/10/01 16:06:45;;;;;;;5.82;2.40;;;16.80;1.00;;;;;;10463262;28;20280;-77
2023/10/01 16:12:12;;;;;;;7.53;2.00;;;16.70;1.00;;;;;;10471786;28;20212;-76
2023/10/01 16:17:33;;;;;;;6.00;1.88;;;16.60;1.00;;;;;;10429419;28;20200;-77
2023/10/01 16:22:58;;;;;;;8.13;3.03;;;16.60;1.00;;;;;;10474298;28;20216;-77
2023/10/01 16:28:24;;;;;;;7.07;3.25;;;16.50;1.00;;;;;;10461721;28;20252;-76
2023/10/01 16:33:49;;;;;;;4.85;2.30;;;16.50;1.00;;;;;;10482317;28;20524;-77
2023/10/01 16:39:16;;;;;;;5.65;2.38;;;16.40;1.00;;;;;;10483957;28;20512;-77
2023/10/01 16:44:38;;;;;;;5.63;2.33;;;16.40;1.00;;;;;;10485589;28;20217;-77
2023/10/01 16:49:59;;;;;;;8.13;2.63;;;16.30;1.00;;;;;;10484784;28;20190;-77
2023/10/01 16:55:22;;;;;;;6.85;2.50;;;16.20;1.00;;;;;;10484302;28;20504;-77
2023/10/01 17:00:44;;;;;;;5.82;2.47;;;;;;;;;;10500071;28;20282;-77
2023/10/01 17:06:08;;;;;;;6.63;3.15;;;16.10;99.90;;;;;;10469330;28;20347;-77
2023/10/01 17:11:29;;;;;;;6.63;4.18;;;16.10;99.90;;;;;;10483260;28;20241;-77
2023/10/01 17:16:51;;;;;;;11.60;6.00;;;16.00;34.90;;;;;;10484078;28;20209;-78
2023/10/01 17:22:16;;;;;;;13.43;5.65;;;15.80;1.00;;;;;;10479608;28;20222;-77
2023/10/01 17:27:37;;;;;;;6.93;3.92;;;15.70;1.00;;;;;;10469976;28;20198;-76
2023/10/01 17:33:01;;;;;;;10.13;4.43;;;16.00;99.90;;;;;;10471057;28;20418;-76
2023/10/01 17:38:22;;;;;;;10.82;5.20;;;15.80;99.90;;;;;;10477424;28;20205;-75
2023/10/01 17:43:54;;;;;;;11.93;5.68;;;15.60;1.00;;;;;;10450580;28;20292;-75
2023/10/01 17:49:16;;;;;;;11.05;6.65;;;15.60;1.00;;;;;;10468797;28;20213;-76
2023/10/01 17:54:38;;;;;;;12.77;7.65;;;15.30;99.90;;;;;;10481003;28;20396;-75
2023/10/01 18:00:11;;;;;;;20.38;10.50;;;15.10;99.90;;;;;;10493405;28;20230;-76
2023/10/01 18:05:34;;;;;;;21.52;12.45;;;15.00;99.90;;;;;;10477022;28;20198;-76
2023/10/01 18:10:59;;;;;;;21.73;11.77;;;14.90;99.90;;;;;;10477546;28;20233;-75
2023/10/01 18:16:26;;;;;;;23.05;11.05;;;14.90;1.00;;;;;;10481993;28;20272;-76
2023/10/01 18:21:53;;;;;;;15.88;8.45;;;14.90;1.00;;;;;;10463727;28;20540;-76
2023/10/01 18:27:16;;;;;;;14.98;7.60;;;15.00;1.00;;;;;;10478905;28;20412;-75
2023/10/01 18:32:46;;;;;;;14.10;7.57;;;14.90;1.00;;;;;;10466307;28;20550;-75
2023/10/01 18:38:11;;;;;;;19.30;11.32;;;14.80;1.00;;;;;;10475703;28;20214;-75
2023/10/01 18:43:32;;;;;;;16.23;9.02;;;14.70;1.00;;;;;;10480208;28;20287;-76
2023/10/01 18:48:53;;;;;;;14.82;6.97;;;14.60;1.00;;;;;;10477596;28;20281;-75
2023/10/01 18:54:19;;;;;;;12.70;5.32;;;;;;;;;;10480313;28;20465;-75
2023/10/01 18:59:40;;;;;;;11.98;5.70;;;14.50;32.90;;;;;;10479347;28;20281;-76
2023/10/01 19:05:05;;;;;;;13.32;7.57;;;14.50;99.90;;;;;;10474667;28;20198;-75
2023/10/01 19:10:30;;;;;;;19.58;9.63;;;14.40;99.90;;;;;;10478819;28;20395;-75
2023/10/01 19:15:56;;;;;;;22.52;11.60;;;14.50;99.90;;;;;;10478641;28;20225;-75
2023/10/01 19:21:20;;;;;;;25.85;13.32;;;14.50;99.90;;;;;;10476314;28;20261;-75
2023/10/01 19:26:45;;;;;;;25.23;11.63;;;14.50;99.90;;;;;;10477466;28;20387;-75
2023/10/01 19:32:12;;;;;;;26.30;12.55;;;14.40;99.90;;;;;;10478694;28;20286;-76
2023/10/01 19:37:35;;;;;;;20.17;10.88;;;14.40;99.90;;;;;;10466452;28;20416;-75
2023/10/01 19:43:00;;;;;;;15.68;8.75;;;14.50;99.90;;;;;;10466925;28;20226;-75
2023/10/01 19:48:22;;;;;;;17.27;9.68;;;14.50;99.90;;;;;;10467363;28;20196;-75
2023/10/01 19:53:43;;;;;;;14.82;7.60;;;14.40;99.90;;;;;;10437978;28;20191;-75
2023/10/01 19:59:13;;;;;;;11.65;6.95;;;14.30;99.90;;;;;;10467773;28;20203;-75
2023/10/01 20:04:35;;;;;;;13.65;8.02;;;14.20;99.90;;;;;;10473391;28;20253;-76
2023/10/01 20:09:58;;;;;;;16.20;9.77;;;14.10;99.90;;;;;;10477761;28;20238;-75
2023/10/01 20:15:23;;;;;;;26.25;13.50;;;14.00;99.90;;;;;;10474406;28;20200;-76
2023/10/01 20:20:48;;;;;;;24.42;14.18;;;14.00;99.90;;;;;;10477662;28;20225;-75
2023/10/01 20:26:09;;;;;;;23.35;11.77;;;13.90;1.00;;;;;;10475677;28;20194;-75
2023/10/01 20:31:30;;;;;;;25.67;12.27;;;13.80;1.00;;;;;;10477688;28;20204;-75
2023/10/01 20:36:52;;;;;;;22.10;12.13;;;13.80;1.00;;;;;;10490561;28;20197;-75
2023/10/01 20:42:17;;;;;;;23.25;12.73;;;13.70;1.00;;;;;;10464519;28;20264;-75
2023/10/01 20:47:39;;;;;;;19.33;10.40;;;13.60;1.00;;;;;;10476041;28;20197;-75
2023/10/01 20:53:00;;;;;;;16.88;9.25;;;13.40;1.00;;;;;;10476279;28;20394;-75
2023/10/01 20:58:21;;;;;;;21.98;10.88;;;13.30;1.00;;;;;;10477303;28;20189;-76
2023/10/01 21:03:49;;;;;;;20.63;11.23;;;13.30;1.00;;;;;;10476491;28;20223;-77
2023/10/01 21:09:18;;;;;;;18.98;10.00;;;13.20;99.90;;;;;;10475839;28;20281;-76
2023/10/01 21:14:48;;;;;;;16.52;9.35;;;13.20;1.00;;;;;;10478140;28;20222;-76
2023/10/01 21:20:17;;;;;;;21.27;10.32;;;13.20;1.00;;;;;;10484299;28;20224;-76
2023/10/01 21:25:39;;;;;;;20.23;10.48;;;13.10;1.00;;;;;;10468834;28;20278;-76
2023/10/01 21:31:00;;;;;;;19.77;10.75;;;13.00;1.00;;;;;;10483881;28;20192;-77
2023/10/01 21:36:22;;;;;;;22.33;11.90;;;13.00;1.00;;;;;;10483728;28;20188;-76
2023/10/01 21:41:49;;;;;;;23.48;12.45;;;12.90;1.00;;;;;;10482621;28;20221;-77
2023/10/01 21:47:15;;;;;;;23.85;13.18;;;12.90;1.00;;;;;;10483389;28;20503;-76
2023/10/01 21:52:40;;;;;;;22.65;11.82;;;12.90;1.00;;;;;;10478765;28;20206;-76
2023/10/01 21:58:02;;;;;;;21.02;11.45;;;12.80;1.00;;;;;;10441575;28;20198;-77
2023/10/01 22:03:23;;;;;;;23.63;12.00;;;12.80;1.00;;;;;;10479706;28;20227;-76
2023/10/01 22:08:46;;;;;;;18.35;10.57;;;12.70;1.00;;;;;;10482353;28;20230;-76
2023/10/01 22:14:15;;;;;;;15.63;10.18;;;12.70;1.00;;;;;;10481016;28;20276;-76
2023/10/01 22:19:43;;;;;;;19.10;10.82;;;12.60;99.90;;;;;;10422748;28;20398;-76
2023/10/01 22:25:15;;;;;;;17.05;9.85;;;12.60;1.00;;;;;;10441877;28;20301;-77
2023/10/01 22:30:36;;;;;;;20.17;9.10;;;12.50;1.00;;;;;;10464267;28;20382;-76
2023/10/01 22:35:58;;;;;;;16.45;8.45;;;12.50;1.00;;;;;;10470755;28;20187;-76
2023/10/01 22:41:20;;;;;;;13.25;7.78;;;12.50;99.90;;;;;;10478500;28;20228;-77
2023/10/01 22:46:41;;;;;;;12.70;7.07;;;12.40;99.90;;;;;;10481105;28;20475;-76
2023/10/01 22:52:07;;;;;;;11.57;7.40;;;12.40;1.00;;;;;;10480934;28;20456;-76
2023/10/01 22:57:43;;;;;;;12.75;7.55;;;12.30;1.00;;;;;;10479071;28;20254;-76
2023/10/01 23:03:08;;;;;;;18.50;8.97;;;12.30;1.00;;;;;;10479380;28;20306;-76
2023/10/01 23:08:33;;;;;;;19.45;10.00;;;12.30;1.00;;;;;;10438370;28;20239;-76
2023/10/01 23:13:54;;;;;;;18.05;9.95;;;12.30;1.00;;;;;;10478755;28;20497;-76
2023/10/01 23:24:54;;;;;;;19.52;10.10;;;12.20;1.00;;;;;;10477939;28;20204;-76
2023/10/01 23:30:35;;;;;;;17.02;10.02;;;12.20;99.90;;;;;;10479128;28;20460;-76
2023/10/01 23:36:02;;;;;;;14.13;8.38;;;12.10;1.00;;;;;;10479055;28;20270;-75
2023/10/01 23:41:47;;;;;;;11.57;7.47;;;12.00;1.00;;;;;;10476474;28;20447;-76
2023/10/01 23:47:11;;;;;;;16.90;8.37;;;11.90;1.00;;;;;;10478884;28;20221;-76
2023/10/01 23:52:32;;;;;;;10.10;7.37;;;11.90;1.00;;;;;;10478496;28;20201;-75
2023/10/01 23:58:09;;;;;;;12.53;8.57;;;11.90;1.00;;;;;;10442454;28;20282;-76
